createdAt,value
2023-03-03T00:00:25.493Z,34.23
2023-03-03T00:02:52.202Z,34.83
2023-03-03T00:05:18.658Z,33.43
2023-03-03T00:07:45.582Z,34.60
2023-03-03T00:10:13.341Z,34.40
2023-03-03T00:12:48.653Z,32.70
2023-03-03T00:15:25.810Z,34.07
2023-03-03T00:17:53.380Z,34.43
2023-03-03T00:20:22.883Z,34.80
2023-03-03T00:22:49.592Z,33.57
2023-03-03T00:25:19.318Z,34.38
2023-03-03T00:27:45.815Z,34.27
2023-03-03T00:30:25.127Z,35.30
2023-03-03T00:32:52.494Z,34.77
2023-03-03T00:35:29.067Z,33.67
2023-03-03T00:38:12.361Z,32.13
2023-03-03T00:40:40.970Z,32.00
2023-03-03T00:43:28.974Z,33.00
2023-03-03T00:45:56.735Z,31.10
2023-03-03T00:48:29.304Z,33.47
2023-03-03T00:51:01.121Z,32.63
2023-03-03T00:53:30.340Z,33.70
2023-03-03T00:55:58.068Z,34.27
2023-03-03T00:58:25.623Z,32.10
2023-03-03T01:00:54.384Z,31.33
2023-03-03T01:03:23.880Z,31.13
2023-03-03T01:05:51.257Z,33.77
2023-03-03T01:08:18.392Z,31.00
2023-03-03T01:10:59.931Z,31.23
2023-03-03T01:13:29.864Z,32.50
2023-03-03T01:15:56.707Z,33.93
2023-03-03T01:18:23.432Z,32.53
2023-03-03T01:20:49.863Z,32.77
2023-03-03T01:23:16.559Z,31.93
2023-03-03T01:25:43.392Z,30.97
2023-03-03T01:28:10.303Z,34.00
2023-03-03T01:30:36.923Z,33.57
2023-03-03T01:33:03.862Z,32.30
2023-03-03T01:35:30.587Z,31.40
2023-03-03T01:37:58.120Z,33.57
2023-03-03T01:40:30.984Z,31.73
2023-03-03T01:43:00.134Z,34.83
2023-03-03T01:45:42.589Z,32.37
2023-03-03T01:48:32.963Z,33.50
2023-03-03T01:51:03.661Z,32.47
2023-03-03T01:53:46.293Z,32.08
2023-03-03T01:56:12.770Z,30.80
2023-03-03T01:58:44.442Z,34.63
2023-03-03T02:01:27.493Z,33.00
2023-03-03T02:03:54.731Z,33.70
2023-03-03T02:06:26.543Z,31.93
2023-03-03T02:09:15.541Z,32.33
2023-03-03T02:11:44.499Z,32.57
2023-03-03T02:14:12.502Z,32.90
2023-03-03T02:16:40.698Z,32.30
2023-03-03T02:19:18.622Z,33.87
2023-03-03T02:21:45.212Z,33.50
2023-03-03T02:24:42.759Z,30.43
2023-03-03T02:27:09.388Z,33.47
2023-03-03T02:29:35.782Z,33.23
2023-03-03T02:32:02.997Z,34.27
2023-03-03T02:34:29.689Z,32.07
2023-03-03T02:36:56.205Z,33.83
2023-03-03T02:39:26.903Z,33.70
2023-03-03T02:42:08.197Z,32.25
2023-03-03T02:44:35.237Z,32.40
2023-03-03T02:47:01.849Z,33.17
2023-03-03T02:49:33.925Z,32.50
2023-03-03T02:52:02.178Z,33.23
2023-03-03T02:54:30.647Z,32.63
2023-03-03T02:56:58.151Z,35.37
2023-03-03T02:59:24.603Z,31.67
2023-03-03T03:01:51.617Z,34.83
2023-03-03T03:04:24.208Z,33.47
2023-03-03T03:06:51.615Z,32.67
2023-03-03T03:09:19.394Z,31.37
2023-03-03T03:11:46.427Z,32.50
2023-03-03T03:14:14.219Z,34.30
2023-03-03T03:16:41.258Z,32.77
2023-03-03T03:19:08.885Z,32.37
2023-03-03T03:21:35.561Z,32.33
2023-03-03T03:24:01.920Z,33.60
2023-03-03T03:26:28.288Z,35.83
2023-03-03T03:28:54.927Z,34.03
2023-03-03T03:31:21.731Z,32.77
2023-03-03T03:33:48.780Z,33.37
2023-03-03T03:36:15.148Z,33.37
2023-03-03T03:38:41.934Z,33.30
2023-03-03T03:41:08.312Z,32.90
2023-03-03T03:43:35.384Z,33.93
2023-03-03T03:46:02.340Z,35.33
2023-03-03T03:48:29.566Z,32.00
2023-03-03T03:50:56.001Z,32.97
2023-03-03T03:53:22.484Z,34.20
2023-03-03T03:55:49.209Z,33.53
2023-03-03T03:58:17.516Z,32.60
2023-03-03T04:00:46.100Z,34.37
2023-03-03T04:03:12.967Z,36.37
2023-03-03T04:05:39.405Z,34.53
2023-03-03T04:08:06.452Z,36.27
2023-03-03T04:10:32.795Z,36.63
2023-03-03T04:12:59.303Z,35.20
2023-03-03T04:15:25.894Z,36.00
2023-03-03T04:17:52.444Z,36.83
2023-03-03T04:20:19.243Z,36.40
2023-03-03T04:22:45.736Z,35.87
2023-03-03T04:25:16.104Z,36.93
2023-03-03T04:27:43.866Z,36.05
2023-03-03T04:30:15.583Z,39.73
2023-03-03T04:32:42.839Z,36.50
2023-03-03T04:35:10.207Z,37.47
2023-03-03T04:37:38.209Z,35.10
2023-03-03T04:40:06.995Z,36.67
2023-03-03T04:42:33.837Z,35.53
2023-03-03T04:45:00.674Z,35.53
2023-03-03T04:47:27.169Z,34.37
2023-03-03T04:49:53.633Z,37.43
2023-03-03T04:52:20.154Z,35.53
2023-03-03T04:54:46.838Z,36.50
2023-03-03T04:57:13.281Z,36.33
2023-03-03T04:59:39.998Z,35.83
2023-03-03T05:02:06.497Z,34.13
2023-03-03T05:04:33.580Z,34.57
2023-03-03T05:07:00.105Z,35.37
2023-03-03T05:09:26.514Z,35.37
2023-03-03T05:11:53.228Z,34.17
2023-03-03T05:14:19.775Z,33.33
2023-03-03T05:16:46.370Z,34.40
2023-03-03T05:19:12.880Z,34.27
2023-03-03T05:21:39.554Z,34.20
2023-03-03T05:24:06.090Z,33.90
2023-03-03T05:26:32.778Z,36.20
2023-03-03T05:28:59.114Z,34.87
2023-03-03T05:31:25.952Z,35.57
2023-03-03T05:33:52.895Z,33.23
2023-03-03T05:36:19.431Z,34.17
2023-03-03T05:38:46.058Z,34.93
2023-03-03T05:41:12.864Z,33.30
2023-03-03T05:43:39.297Z,33.10
2023-03-03T05:46:05.678Z,34.77
2023-03-03T05:48:32.578Z,35.40
2023-03-03T05:50:59.493Z,32.63
2023-03-03T05:53:27.316Z,34.40
2023-03-03T05:55:54.256Z,35.97
2023-03-03T05:58:21.228Z,36.40
2023-03-03T06:00:48.288Z,36.27
2023-03-03T06:03:14.782Z,36.10
2023-03-03T06:05:41.237Z,36.10
2023-03-03T06:08:07.727Z,35.87
2023-03-03T06:10:34.236Z,35.53
2023-03-03T06:13:00.776Z,34.63
2023-03-03T06:15:27.463Z,35.43
2023-03-03T06:17:54.057Z,34.93
2023-03-03T06:20:20.989Z,36.60
2023-03-03T06:22:47.534Z,34.83
2023-03-03T06:25:14.563Z,35.20
2023-03-03T06:27:40.968Z,36.23
2023-03-03T06:30:08.214Z,34.50
2023-03-03T06:32:35.013Z,34.07
2023-03-03T06:35:01.491Z,35.80
2023-03-03T06:37:28.110Z,34.23
2023-03-03T06:39:54.837Z,35.70
2023-03-03T06:42:21.336Z,33.93
2023-03-03T06:44:48.040Z,34.93
2023-03-03T06:47:14.734Z,32.93
2023-03-03T06:49:41.197Z,34.10
2023-03-03T06:52:20.604Z,34.53
2023-03-03T06:54:47.172Z,31.63
2023-03-03T06:57:25.471Z,34.90
2023-03-03T06:59:55.178Z,38.07
2023-03-03T07:02:22.425Z,35.33
2023-03-03T07:04:49.128Z,35.60
2023-03-03T07:07:26.439Z,34.77
2023-03-03T07:09:57.257Z,34.15
2023-03-03T07:12:30.252Z,36.50
2023-03-03T07:15:17.890Z,35.47
2023-03-03T07:17:50.520Z,32.63
2023-03-03T07:20:23.688Z,35.23
2023-03-03T07:22:50.702Z,36.77
2023-03-03T07:25:28.532Z,34.90
2023-03-03T07:28:00.214Z,34.88
2023-03-03T07:30:29.179Z,34.40
2023-03-03T07:32:58.710Z,35.50
2023-03-03T07:35:39.442Z,35.53
2023-03-03T07:38:37.456Z,34.75
2023-03-03T07:41:10.174Z,33.88
2023-03-03T07:43:43.709Z,33.70
2023-03-03T07:46:10.434Z,33.03
2023-03-03T07:48:42.547Z,33.10
2023-03-03T07:51:22.454Z,35.28
2023-03-03T07:53:49.219Z,34.50
2023-03-03T07:56:25.996Z,36.40
2023-03-03T07:58:52.457Z,37.80
2023-03-03T08:01:40.797Z,35.33
2023-03-03T08:04:16.496Z,34.15
2023-03-03T08:06:50.097Z,33.70
2023-03-03T08:09:19.635Z,34.88
2023-03-03T08:11:57.642Z,36.33
2023-03-03T08:14:34.045Z,35.85
2023-03-03T08:17:01.970Z,35.60
2023-03-03T08:19:31.642Z,36.88
2023-03-03T08:22:12.663Z,35.53
2023-03-03T08:27:05.566Z,34.20
2023-03-03T08:29:32.811Z,36.25
2023-03-03T08:31:59.346Z,34.67
2023-03-03T08:34:26.375Z,35.20
2023-03-03T08:36:52.813Z,36.47
2023-03-03T08:39:19.573Z,36.63
2023-03-03T08:41:46.020Z,36.83
2023-03-03T08:44:12.440Z,34.42
2023-03-03T08:46:40.337Z,36.83
2023-03-03T08:49:06.832Z,33.72
2023-03-03T08:51:33.365Z,34.33
2023-03-03T08:53:59.836Z,35.30
2023-03-03T08:56:26.286Z,31.83
2023-03-03T08:59:02.121Z,31.95
2023-03-03T09:01:32.913Z,34.70
2023-03-03T09:03:59.809Z,33.58
2023-03-03T09:06:26.341Z,32.03
2023-03-03T09:08:53.362Z,34.97
2023-03-03T09:11:25.197Z,32.40
2023-03-03T09:13:54.449Z,34.75
2023-03-03T09:16:22.302Z,35.40
2023-03-03T09:18:51.223Z,33.45
2023-03-03T09:21:26.388Z,33.92
2023-03-03T09:24:02.192Z,32.40
2023-03-03T09:26:47.529Z,32.13
2023-03-03T09:29:14.221Z,31.70
2023-03-03T09:31:53.470Z,29.75
2023-03-03T09:34:24.434Z,29.90
2023-03-03T09:36:53.241Z,29.73
2023-03-03T09:39:25.159Z,29.52
2023-03-03T09:42:13.204Z,29.75
2023-03-03T09:45:08.918Z,29.67
2023-03-03T09:48:04.612Z,29.70
2023-03-03T09:51:09.108Z,29.05
2023-03-03T09:53:46.937Z,31.10
2023-03-03T09:56:31.340Z,28.50
2023-03-03T09:59:06.380Z,27.58
2023-03-03T10:01:57.663Z,30.23
2023-03-03T10:05:01.585Z,28.88
2023-03-03T10:07:37.398Z,29.38
2023-03-03T10:10:43.224Z,30.83
2023-03-03T10:13:22.604Z,30.05
2023-03-03T10:16:11.150Z,29.23
2023-03-03T10:18:50.215Z,30.52
2023-03-03T10:21:20.383Z,30.35
2023-03-03T10:24:06.135Z,31.02
2023-03-03T10:27:13.814Z,31.48
2023-03-03T10:29:52.453Z,31.50
2023-03-03T10:32:32.974Z,32.42
2023-03-03T10:35:19.271Z,29.65
2023-03-03T10:38:23.067Z,31.88
2023-03-03T10:41:08.126Z,31.80
2023-03-03T10:43:46.047Z,33.55
2023-03-03T10:46:39.426Z,31.00
2023-03-03T10:49:20.100Z,31.15
2023-03-03T10:52:03.289Z,31.38
2023-03-03T10:55:08.643Z,30.05
2023-03-03T10:57:53.696Z,33.30
2023-03-03T11:00:27.738Z,32.88
2023-03-03T11:03:07.185Z,31.95
2023-03-03T11:05:57.838Z,31.95
2023-03-03T11:08:33.775Z,30.88
2023-03-03T11:11:36.959Z,34.50
2023-03-03T11:14:14.170Z,32.22
2023-03-03T11:17:18.289Z,31.25
2023-03-03T11:20:29.430Z,32.53
2023-03-03T11:25:30.615Z,31.98
2023-03-03T11:28:03.666Z,30.25
2023-03-03T11:30:36.258Z,32.45
2023-03-03T11:33:06.174Z,31.85
2023-03-03T11:35:45.685Z,31.30
2023-03-03T11:38:53.773Z,29.55
2023-03-03T11:41:50.688Z,29.02
2023-03-03T11:44:31.533Z,32.67
2023-03-03T11:47:20.003Z,28.92
2023-03-03T11:50:14.128Z,30.63
2023-03-03T11:53:08.270Z,31.73
2023-03-03T11:55:41.584Z,30.33
2023-03-03T11:58:20.956Z,30.20
2023-03-03T12:01:15.304Z,32.25
2023-03-03T12:03:53.603Z,32.80
2023-03-03T12:06:50.695Z,34.33
2023-03-03T12:09:31.010Z,32.30
2023-03-03T12:12:02.390Z,31.38
2023-03-03T12:15:04.175Z,35.55
2023-03-03T12:17:51.076Z,33.17
2023-03-03T12:20:34.990Z,34.38
2023-03-03T12:23:18.815Z,31.88
2023-03-03T12:25:57.259Z,30.27
2023-03-03T12:28:41.196Z,31.05
2023-03-03T12:31:16.869Z,30.00
2023-03-03T12:33:59.229Z,29.75
2023-03-03T12:36:53.817Z,30.90
2023-03-03T12:39:48.417Z,28.38
2023-03-03T12:42:27.070Z,30.92
2023-03-03T12:45:14.967Z,31.30
2023-03-03T12:47:57.376Z,30.75
2023-03-03T12:50:38.878Z,30.38
2023-03-03T12:53:33.238Z,32.50
2023-03-03T12:56:30.545Z,30.27
2023-03-03T12:59:05.812Z,29.75
2023-03-03T13:01:38.435Z,28.17
2023-03-03T13:04:21.938Z,31.33
2023-03-03T13:06:58.944Z,30.42
2023-03-03T13:10:02.447Z,30.35
2023-03-03T13:12:49.596Z,31.42
2023-03-03T13:15:31.675Z,29.05
2023-03-03T13:18:31.491Z,31.63
2023-03-03T13:21:15.597Z,30.85
2023-03-03T13:23:57.600Z,29.77
2023-03-03T13:26:38.521Z,29.60
2023-03-03T13:31:41.627Z,28.15
2023-03-03T13:36:50.844Z,29.45
2023-03-03T13:39:26.000Z,28.30
2023-03-03T13:42:37.454Z,29.20
2023-03-03T13:45:41.835Z,29.30
2023-03-03T13:48:38.499Z,31.25
2023-03-03T13:51:26.541Z,29.17
2023-03-03T13:54:08.034Z,29.48
2023-03-03T13:56:49.455Z,28.02
2023-03-03T13:59:36.934Z,25.88
2023-03-03T14:02:31.283Z,28.55
2023-03-03T14:05:17.747Z,28.88
2023-03-03T14:08:23.205Z,26.85
2023-03-03T14:11:15.355Z,28.02
2023-03-03T14:14:30.091Z,26.25
2023-03-03T14:17:12.832Z,26.52
2023-03-03T14:20:05.251Z,27.17
2023-03-03T14:22:51.869Z,27.40
2023-03-03T14:25:19.505Z,25.55
2023-03-03T14:27:49.088Z,27.60
2023-03-03T14:30:28.256Z,25.00
2023-03-03T14:33:16.523Z,26.38
2023-03-03T14:35:50.365Z,25.45
2023-03-03T14:38:23.571Z,25.92
2023-03-03T14:41:23.649Z,24.85
2023-03-03T14:43:58.328Z,26.03
2023-03-03T14:46:28.102Z,23.77
2023-03-03T14:48:58.377Z,25.97
2023-03-03T14:51:34.536Z,24.58
2023-03-03T14:54:01.557Z,24.83
2023-03-03T14:56:39.171Z,25.60
2023-03-03T14:59:14.678Z,25.08
2023-03-03T15:01:42.506Z,23.05
2023-03-03T15:04:16.013Z,26.23
2023-03-03T15:06:45.459Z,24.33
2023-03-03T15:09:24.368Z,25.33
2023-03-03T15:11:53.818Z,24.63
2023-03-03T15:14:28.938Z,25.10
2023-03-03T15:17:00.778Z,24.73
2023-03-03T15:19:44.783Z,23.95
2023-03-03T15:22:22.379Z,25.88
2023-03-03T15:25:09.090Z,24.73
2023-03-03T15:27:42.449Z,26.08
2023-03-03T15:30:16.076Z,24.40
2023-03-03T15:32:53.969Z,27.38
2023-03-03T15:35:26.882Z,24.48
2023-03-03T15:38:19.931Z,25.73
2023-03-03T15:40:49.827Z,24.60
2023-03-03T15:43:34.861Z,23.87
2023-03-03T15:46:20.290Z,25.10
2023-03-03T15:49:18.510Z,26.27
2023-03-03T15:52:03.929Z,24.67
2023-03-03T15:54:36.585Z,26.20
2023-03-03T15:57:57.716Z,25.10
2023-03-03T16:00:34.028Z,24.33
2023-03-03T16:03:24.381Z,24.83
2023-03-03T16:05:58.933Z,26.00
2023-03-03T16:08:55.295Z,25.67
2023-03-03T16:11:32.726Z,26.83
2023-03-03T16:14:02.726Z,26.00
2023-03-03T16:16:50.076Z,24.63
2023-03-03T16:19:35.062Z,26.05
2023-03-03T16:22:13.503Z,25.63
2023-03-03T16:24:56.481Z,24.25
2023-03-03T16:28:15.765Z,24.77
2023-03-03T16:30:58.110Z,25.55
2023-03-03T16:33:40.515Z,24.77
2023-03-03T16:36:54.130Z,24.77
2023-03-03T16:39:49.652Z,26.52
2023-03-03T16:42:36.015Z,28.00
2023-03-03T16:45:27.082Z,24.88
2023-03-03T16:50:45.246Z,24.67
2023-03-03T16:53:23.619Z,24.83
2023-03-03T16:56:21.682Z,25.27
2023-03-03T16:58:59.037Z,25.65
2023-03-03T17:01:25.586Z,23.30
2023-03-03T17:03:58.468Z,25.33
2023-03-03T17:06:42.015Z,26.65
2023-03-03T17:09:31.531Z,27.13
2023-03-03T17:12:42.040Z,25.23
2023-03-03T17:15:22.594Z,31.17
2023-03-03T17:18:13.845Z,33.65
2023-03-03T17:20:47.777Z,39.83
2023-03-03T17:23:26.547Z,35.03
2023-03-03T17:26:27.482Z,29.45
2023-03-03T17:29:09.892Z,31.27
2023-03-03T17:32:08.736Z,33.22
2023-03-03T17:34:49.311Z,31.83
2023-03-03T17:37:33.384Z,31.95
2023-03-03T17:40:19.589Z,35.03
2023-03-03T17:43:14.966Z,32.80
2023-03-03T17:45:45.525Z,34.45
2023-03-03T17:48:21.211Z,30.17
2023-03-03T17:50:59.610Z,33.17
2023-03-03T17:54:03.042Z,30.75
2023-03-03T17:57:01.839Z,34.47
2023-03-03T17:59:56.674Z,30.70
2023-03-03T18:02:43.473Z,32.85
2023-03-03T18:05:25.558Z,30.30
2023-03-03T18:08:44.826Z,30.17
2023-03-03T18:11:40.825Z,29.40
2023-03-03T18:14:31.840Z,28.65
2023-03-03T18:19:30.961Z,27.70
2023-03-03T18:22:17.981Z,27.38
2023-03-03T18:24:50.899Z,26.67
2023-03-03T18:27:40.158Z,30.20
2023-03-03T18:30:15.597Z,29.15
2023-03-03T18:32:44.950Z,29.65
2023-03-03T18:35:25.621Z,28.67
2023-03-03T18:37:52.759Z,28.38
2023-03-03T18:40:24.949Z,27.73
2023-03-03T18:42:51.724Z,25.35
2023-03-03T18:45:18.110Z,25.63
2023-03-03T18:48:03.650Z,25.42
2023-03-03T18:50:48.314Z,28.92
2023-03-03T18:53:17.540Z,26.00
2023-03-03T18:55:45.175Z,25.25
2023-03-03T18:58:14.424Z,28.23
2023-03-03T19:00:51.488Z,26.17
2023-03-03T19:03:55.997Z,26.98
2023-03-03T19:06:56.352Z,27.00
2023-03-03T19:09:47.945Z,27.55
2023-03-03T19:12:17.512Z,29.00
2023-03-03T19:14:48.784Z,28.20
2023-03-03T19:17:18.212Z,30.50
2023-03-03T19:20:09.998Z,29.15
2023-03-03T19:23:05.682Z,29.27
2023-03-03T19:25:33.414Z,29.70
2023-03-03T19:28:15.150Z,31.83
2023-03-03T19:31:09.281Z,28.00
2023-03-03T19:33:49.647Z,29.17
2023-03-03T19:36:38.067Z,29.85
2023-03-03T19:39:16.686Z,30.45
2023-03-03T19:42:01.242Z,28.52
2023-03-03T19:44:33.809Z,27.90
2023-03-03T19:47:11.512Z,30.00
2023-03-03T19:49:56.835Z,29.63
2023-03-03T19:52:43.677Z,31.85
2023-03-03T19:55:28.917Z,29.90
2023-03-03T19:58:44.859Z,30.17
2023-03-03T20:01:21.692Z,28.08
2023-03-03T20:04:27.119Z,28.97
2023-03-03T20:07:24.683Z,28.87
2023-03-03T20:10:15.764Z,28.73
2023-03-03T20:15:19.286Z,27.80
2023-03-03T20:18:15.725Z,33.13
2023-03-03T20:21:05.365Z,31.77
2023-03-03T20:23:46.301Z,31.43
2023-03-03T20:29:21.685Z,30.77
2023-03-03T20:32:14.298Z,29.47
2023-03-03T20:35:04.882Z,32.77
2023-03-03T20:37:38.674Z,30.35
2023-03-03T20:40:16.176Z,32.47
2023-03-03T20:42:52.776Z,31.67
2023-03-03T20:45:35.267Z,32.57
2023-03-03T20:48:17.037Z,33.33
2023-03-03T20:50:58.828Z,32.23
2023-03-03T20:53:48.596Z,33.50
2023-03-03T20:56:42.796Z,33.40
2023-03-03T20:59:32.276Z,32.53
2023-03-03T21:02:23.468Z,33.27
2023-03-03T21:05:17.560Z,34.60
2023-03-03T21:08:05.316Z,34.77
2023-03-03T21:10:36.310Z,31.93
2023-03-03T21:13:21.417Z,32.17
2023-03-03T21:16:00.938Z,33.33
2023-03-03T21:18:27.536Z,32.70
2023-03-03T21:20:53.951Z,32.30
2023-03-03T21:23:20.480Z,34.17
2023-03-03T21:25:55.558Z,34.27
2023-03-03T21:28:22.377Z,35.50
2023-03-03T21:31:10.594Z,35.57
2023-03-03T21:33:41.139Z,35.07
2023-03-03T21:36:08.616Z,34.58
2023-03-03T21:38:36.857Z,33.50
2023-03-03T21:41:04.731Z,34.23
2023-03-03T21:43:40.512Z,34.13
2023-03-03T21:46:07.617Z,32.77
2023-03-03T21:48:34.493Z,34.17
2023-03-03T21:51:01.778Z,33.77
2023-03-03T21:53:29.649Z,33.57
2023-03-03T21:55:56.403Z,34.77
2023-03-03T21:58:22.908Z,34.90
2023-03-03T22:00:49.318Z,31.87
2023-03-03T22:03:15.825Z,31.40
2023-03-03T22:05:42.724Z,39.70
2023-03-03T22:08:09.171Z,39.97
2023-03-03T22:10:35.685Z,36.47
2023-03-03T22:13:03.493Z,35.80
2023-03-03T22:15:30.418Z,36.30
2023-03-03T22:17:58.132Z,34.37
2023-03-03T22:20:24.606Z,34.93
2023-03-03T22:22:51.115Z,35.63
2023-03-03T22:25:18.540Z,36.20
2023-03-03T22:27:45.436Z,34.60
2023-03-03T22:30:12.401Z,37.03
2023-03-03T22:32:38.810Z,33.67
2023-03-03T22:35:05.713Z,34.80
2023-03-03T22:37:32.272Z,38.00
2023-03-03T22:39:58.853Z,36.63
2023-03-03T22:42:25.479Z,34.57
2023-03-03T22:44:51.919Z,33.10
2023-03-03T22:47:18.462Z,34.80
2023-03-03T22:49:44.954Z,34.87
2023-03-03T22:52:11.650Z,34.70
2023-03-03T22:54:38.259Z,35.33
2023-03-03T22:57:05.934Z,34.13
2023-03-03T22:59:32.520Z,37.37
2023-03-03T23:01:59.839Z,38.10
2023-03-03T23:04:26.464Z,36.73
2023-03-03T23:06:53.215Z,37.47
2023-03-03T23:09:19.672Z,37.47
2023-03-03T23:11:47.469Z,38.90
2023-03-03T23:14:13.937Z,36.27
2023-03-03T23:16:40.757Z,35.53
2023-03-03T23:19:07.509Z,35.73
2023-03-03T23:21:33.934Z,35.37
2023-03-03T23:24:00.373Z,34.37
2023-03-03T23:26:27.121Z,34.00
2023-03-03T23:28:53.598Z,34.13
2023-03-03T23:31:20.226Z,35.80
2023-03-03T23:33:46.741Z,34.20
2023-03-03T23:36:13.089Z,34.93
2023-03-03T23:38:40.802Z,35.23
2023-03-03T23:41:09.105Z,33.97
2023-03-03T23:43:35.753Z,35.47
2023-03-03T23:46:02.175Z,33.57
2023-03-03T23:48:29.478Z,33.40
2023-03-03T23:50:56.204Z,32.83
2023-03-03T23:53:22.719Z,32.50
2023-03-03T23:55:49.208Z,32.30
2023-03-03T23:58:15.769Z,34.77
